Time;durP1;ratioP1;P1;durP2;ratioP2;P2;SDS_P1;SDS_P2;PMS_P1;PMS_P2;Temp;Humidity;BMP_temperature;BMP_pressure;BME280_temperature;BME280_humidity;BME280_pressure;Samples;Min_cycle;Max_cycle;Signal;HPM_P1;HPM_P2
2022/04/23 00:00:38;;;;;;;12.40;7.70;;;;;;;8.95;68.84;99538.11;25082;1314;3051235;-64
2022/04/23 00:03:16;;;;;;;10.80;7.70;;;;;;;8.85;69.20;99536.92;25067;1315;3055345;-64
2022/04/23 00:05:45;;;;;;;11.90;9.30;;;;;;;8.79;69.20;99534.42;25110;1315;3026531;-63
2022/04/23 00:08:16;;;;;;;16.30;9.50;;;;;;;8.75;69.39;99537.22;25095;1314;3026937;-63
2022/04/23 00:10:46;;;;;;;12.60;7.60;;;;;;;8.77;69.36;99535.07;25099;1315;3026489;-67
2022/04/23 00:13:17;;;;;;;10.80;7.30;;;;;;;9.36;68.51;99532.09;25068;1318;3026536;-64
2022/04/23 00:15:50;;;;;;;15.00;7.10;;;;;;;9.96;66.74;99526.32;25086;1315;3051107;-63
2022/04/23 00:18:21;;;;;;;12.10;7.30;;;;;;;10.04;66.19;99528.82;25090;1315;3028098;-65
2022/04/23 00:20:51;;;;;;;11.00;7.10;;;;;;;9.87;66.03;99525.92;25043;1317;3026495;-61
2022/04/23 00:23:21;;;;;;;10.70;8.10;;;;;;;9.71;66.09;99519.87;25098;1314;3053032;-63
2022/04/23 00:25:52;;;;;;;14.00;7.60;;;;;;;9.44;66.87;99526.05;25095;1317;3027167;-63
2022/04/23 00:28:21;;;;;;;11.10;8.40;;;;;;;9.30;66.82;99527.31;25052;1317;3027974;-63
2022/04/23 00:30:52;;;;;;;14.80;8.50;;;;;;;9.12;67.17;99529.00;25025;1314;3028561;-66
2022/04/23 00:33:29;;;;;;;11.70;8.60;;;;;;;8.92;68.11;99530.36;25058;1317;3055986;-64
2022/04/23 00:36:00;;;;;;;13.00;8.90;;;;;;;8.77;69.11;99529.10;25012;1314;3026488;-64
2022/04/23 00:38:29;;;;;;;11.10;8.90;;;;;;;8.63;69.74;99531.54;25058;1314;3026901;-63
2022/04/23 00:40:59;;;;;;;14.40;8.40;;;;;;;8.45;70.47;99529.52;25012;1316;3053026;-63
2022/04/23 00:43:30;;;;;;;8.30;6.90;;;;;;;8.36;71.54;99528.73;25020;1316;3027497;-61
2022/04/23 00:46:02;;;;;;;9.60;6.40;;;;;;;8.95;70.26;99522.36;25095;1314;3026704;-62
2022/04/23 00:48:32;;;;;;;10.40;6.30;;;;;;;9.50;68.71;99518.02;25085;1316;3026983;-62
2022/04/23 00:51:01;;;;;;;8.90;6.20;;;;;;;9.68;68.07;99512.84;25113;1316;3027041;-65
2022/04/23 00:53:30;;;;;;;11.10;6.80;;;;;;;9.52;68.26;99510.06;24995;1317;3026465;-62
2022/04/23 00:56:02;;;;;;;14.70;7.80;;;;;;;9.41;68.22;99510.48;24988;1317;3055391;-63
2022/04/23 00:58:31;;;;;;;10.10;7.40;;;;;;;9.25;68.68;99506.09;25081;1315;3026539;-62
2022/04/23 01:01:02;;;;;;;9.00;6.80;;;;;;;9.12;68.82;99505.06;24994;1318;3028774;-63
2022/04/23 01:03:48;;;;;;;11.10;8.20;;;;;;;8.99;69.04;99497.37;25050;1315;3052194;-63
2022/04/23 01:06:18;;;;;;;9.30;7.30;;;;;;;8.90;68.51;99497.67;25050;1314;3026342;-63
2022/04/23 01:08:51;;;;;;;12.00;8.30;;;;;;;8.81;68.81;99491.89;25072;1317;3026503;-63
2022/04/23 01:11:26;;;;;;;12.80;8.10;;;;;;;8.70;69.74;99485.45;25034;1317;3060061;-63
2022/04/23 01:13:56;;;;;;;11.80;7.60;;;;;;;8.63;70.29;99487.02;25051;1318;3026150;-63
2022/04/23 01:16:25;;;;;;;13.20;7.00;;;;;;;9.17;69.94;99487.33;25132;1315;3026987;-62
2022/04/23 01:18:57;;;;;;;9.50;6.80;;;;;;;9.75;68.11;99483.95;25050;1317;3028494;-63
2022/04/23 01:21:27;;;;;;;11.10;7.20;;;;;;;9.81;67.67;99483.40;25021;1314;3026518;-64
2022/04/23 01:23:57;;;;;;;13.00;8.40;;;;;;;9.74;67.98;99484.01;25012;1314;3026454;-64
2022/04/23 01:26:30;;;;;;;14.20;8.50;;;;;;;9.57;68.25;99480.77;25024;1314;3027850;-63
2022/04/23 01:29:00;;;;;;;13.50;8.20;;;;;;;9.38;68.42;99481.26;25060;1315;3026665;-62
2022/04/23 01:31:30;;;;;;;17.40;9.10;;;;;;;9.18;68.53;99476.92;25043;1314;3026701;-64
2022/04/23 01:33:59;;;;;;;14.50;9.60;;;;;;;8.95;69.00;99478.38;25111;1315;3026311;-64
2022/04/23 01:36:29;;;;;;;19.90;11.00;;;;;;;8.77;69.11;99478.45;25086;1314;3052190;-62
2022/04/23 01:38:58;;;;;;;19.40;11.40;;;;;;;8.70;69.20;99477.44;25054;1314;3026421;-62
2022/04/23 01:41:27;;;;;;;16.80;10.80;;;;;;;8.64;69.80;99481.23;25054;1314;3053987;-63
2022/04/23 01:43:57;;;;;;;16.80;11.00;;;;;;;8.60;69.82;99477.41;25047;1314;3026363;-63
2022/04/23 01:46:26;;;;;;;13.40;8.30;;;;;;;8.65;69.42;99475.77;24997;1317;3026151;-63
2022/04/23 01:48:55;;;;;;;14.10;8.00;;;;;;;9.18;68.93;99474.33;25066;1315;3026217;-61
2022/04/23 01:51:28;;;;;;;19.80;11.40;;;;;;;9.71;67.70;99481.02;25067;1315;3052512;-63
2022/04/23 01:53:57;;;;;;;27.70;16.30;;;;;;;9.78;67.13;99486.05;25051;1315;3026373;-62
2022/04/23 01:56:26;;;;;;;25.80;13.40;;;;;;;9.67;67.26;99487.88;25060;1314;3054461;-62
2022/04/23 01:58:55;;;;;;;21.10;11.80;;;;;;;9.46;66.68;99483.97;25041;1315;3026875;-64
2022/04/23 02:01:25;;;;;;;23.40;13.90;;;;;;;9.27;65.80;99484.86;25047;1314;3052235;-64
2022/04/23 02:03:54;;;;;;;21.50;13.80;;;;;;;9.16;66.58;99485.79;25005;1314;3026586;-65
2022/04/23 02:06:23;;;;;;;27.00;14.30;;;;;;;9.01;66.94;99489.04;25034;1317;3070470;-64
2022/04/23 02:08:53;;;;;;;20.70;13.70;;;;;;;8.89;67.31;99488.44;25071;1314;3026863;-63
2022/04/23 02:11:23;;;;;;;26.00;14.60;;;;;;;8.78;67.00;99482.06;25076;1315;3026787;-65
2022/04/23 02:13:55;;;;;;;26.30;13.80;;;;;;;8.62;67.11;99477.30;25068;1318;3027969;-64
2022/04/23 02:16:26;;;;;;;26.70;15.20;;;;;;;8.49;67.41;99471.86;25061;1314;3026017;-61
2022/04/23 02:18:57;;;;;;;25.60;15.20;;;;;;;8.38;67.61;99467.72;25035;1314;3053989;-62
2022/04/23 02:21:30;;;;;;;26.90;14.80;;;;;;;8.27;68.10;99456.91;25086;1316;3026667;-61
2022/04/23 02:24:03;;;;;;;27.80;15.40;;;;;;;8.16;68.82;99453.46;24892;1317;3057520;-62
2022/04/23 02:26:33;;;;;;;25.30;16.30;;;;;;;8.09;69.52;99442.50;25045;1314;3050876;-66
2022/04/23 02:29:09;;;;;;;25.90;14.60;;;;;;;8.04;70.72;99439.23;25071;1316;3053652;-63
2022/04/23 02:31:39;;;;;;;24.80;13.80;;;;;;;8.59;70.10;99436.44;25046;1317;3026521;-65
2022/04/23 02:34:08;;;;;;;28.00;14.70;;;;;;;9.08;68.64;99438.20;25016;1314;3027371;-63
2022/04/23 02:36:37;;;;;;;27.50;15.80;;;;;;;9.21;68.05;99450.23;25083;1315;3026441;-65
2022/04/23 02:39:12;;;;;;;32.50;17.10;;;;;;;9.05;68.29;99454.42;25040;1314;3051183;-64
2022/04/23 02:41:41;;;;;;;29.00;16.00;;;;;;;8.89;69.03;99452.48;25064;1315;3026604;-63
2022/04/23 02:44:15;;;;;;;29.90;16.20;;;;;;;8.70;69.32;99449.45;25092;1314;3054270;-63
2022/04/23 02:46:45;;;;;;;30.40;15.70;;;;;;;8.53;70.00;99449.48;25121;1314;3026521;-64
2022/04/23 02:49:15;;;;;;;28.70;16.80;;;;;;;8.42;69.89;99445.86;25182;1315;3026061;-61
2022/04/23 02:51:48;;;;;;;29.80;16.50;;;;;;;8.35;70.13;99447.60;25440;1314;3027546;-63
2022/04/23 02:54:18;;;;;;;31.50;16.80;;;;;;;8.32;69.82;99453.85;25412;1314;3026528;-61
2022/04/23 02:56:50;;;;;;;33.00;17.00;;;;;;;8.27;70.10;99449.24;25184;1317;3026607;-62
2022/04/23 02:59:20;;;;;;;34.80;18.70;;;;;;;8.26;69.63;99449.11;25049;1314;3026781;-62
2022/04/23 03:01:50;;;;;;;35.50;19.20;;;;;;;8.26;69.30;99448.90;25087;1314;3027590;-63
2022/04/23 03:04:20;;;;;;;31.20;16.30;;;;;;;8.17;69.80;99447.32;25019;1315;3053903;-65
2022/04/23 03:06:50;;;;;;;32.50;16.80;;;;;;;8.68;68.77;99446.06;25002;1314;3026548;-62
2022/04/23 03:09:20;;;;;;;28.70;17.00;;;;;;;9.21;66.82;99451.25;25043;1314;3026776;-63
2022/04/23 03:11:52;;;;;;;29.10;14.30;;;;;;;9.28;66.22;99454.02;25047;1314;3052444;-62
2022/04/23 03:14:21;;;;;;;23.80;12.10;;;;;;;9.22;66.02;99455.59;25082;1315;3025911;-63
2022/04/23 03:16:50;;;;;;;22.60;13.30;;;;;;;9.13;66.26;99453.10;25055;1317;3026588;-63
2022/04/23 03:19:20;;;;;;;27.00;13.10;;;;;;;8.99;66.50;99434.13;25089;1315;3026577;-62
2022/04/23 03:21:51;;;;;;;25.00;13.00;;;;;;;8.87;66.74;99425.72;24992;1317;3058146;-61
2022/04/23 03:24:21;;;;;;;25.30;13.80;;;;;;;8.73;67.33;99432.38;25072;1315;3028135;-63
2022/04/23 03:26:53;;;;;;;27.50;14.00;;;;;;;8.65;67.45;99438.02;25069;1314;3027248;-63
2022/04/23 03:29:22;;;;;;;21.00;12.30;;;;;;;8.62;67.28;99437.00;25044;1314;3026646;-61
2022/04/23 03:31:51;;;;;;;30.40;13.70;;;;;;;8.56;67.57;99431.55;25058;1315;3027431;-62
2022/04/23 03:34:20;;;;;;;27.20;13.40;;;;;;;8.49;67.81;99434.87;25016;1317;3026675;-64
2022/04/23 03:36:53;;;;;;;22.20;13.30;;;;;;;8.42;68.13;99438.86;25051;1314;3053888;-64
2022/04/23 03:39:23;;;;;;;24.60;13.00;;;;;;;8.36;67.93;99437.23;25061;1314;3026644;-62
2022/04/23 03:41:53;;;;;;;26.90;12.90;;;;;;;8.35;67.96;99431.38;25068;1314;3026881;-64
2022/04/23 03:46:47;;;;;;;30.50;14.80;;;;;;;8.43;67.60;99440.38;31677;1319;3026194;-62
2022/04/23 03:49:17;;;;;;;26.10;17.10;;;;;;;8.70;66.87;99445.64;25016;1319;3026755;-62
2022/04/23 03:51:45;;;;;;;21.80;12.80;;;;;;;8.96;66.31;99447.89;25042;1319;3026479;-62
2022/04/23 03:54:17;;;;;;;17.70;11.70;;;;;;;8.81;66.38;99451.16;24996;1318;3050970;-62
2022/04/23 03:56:49;;;;;;;16.40;10.60;;;;;;;8.74;65.91;99447.70;24998;1319;3028091;-62
2022/04/23 03:59:23;;;;;;;14.80;9.50;;;;;;;8.73;65.08;99451.58;24880;1319;3027702;-64
2022/04/23 04:01:53;;;;;;;14.90;8.10;;;;;;;8.76;64.34;99458.05;25108;1316;3026761;-62
2022/04/23 04:04:22;;;;;;;15.30;7.60;;;;;;;8.77;63.68;99453.28;25036;1314;3026671;-62
2022/04/23 04:06:54;;;;;;;14.70;8.40;;;;;;;8.73;62.81;99461.71;25122;1316;3027116;-60
2022/04/23 04:09:23;;;;;;;13.00;7.80;;;;;;;8.71;62.42;99461.63;25110;1316;3026453;-63
2022/04/23 04:12:02;;;;;;;16.00;8.90;;;;;;;8.73;62.05;99457.52;25096;1316;3049757;-63
2022/04/23 04:14:34;;;;;;;10.20;6.80;;;;;;;8.66;61.08;99462.28;25083;1316;3054703;-65
2022/04/23 04:17:09;;;;;;;9.20;6.20;;;;;;;8.72;60.33;99459.66;25060;1316;3028825;-63
2022/04/23 04:19:38;;;;;;;9.90;5.80;;;;;;;8.66;59.88;99455.96;25047;1314;3070306;-61
2022/04/23 04:22:08;;;;;;;9.10;6.50;;;;;;;8.71;60.85;99454.67;25093;1316;3026525;-65
2022/04/23 04:24:38;;;;;;;11.80;6.10;;;;;;;8.92;60.57;99454.58;25072;1316;3052393;-64
2022/04/23 04:27:07;;;;;;;9.10;6.10;;;;;;;9.03;60.33;99446.46;25078;1316;3026420;-65
2022/04/23 04:29:36;;;;;;;11.30;5.90;;;;;;;9.14;60.25;99448.00;25056;1313;3026974;-61
2022/04/23 04:32:08;;;;;;;9.40;5.90;;;;;;;9.30;60.63;99451.99;25067;1314;3026716;-65
2022/04/23 04:34:38;;;;;;;8.70;5.70;;;;;;;9.36;59.87;99454.09;25094;1315;3027395;-63
2022/04/23 04:37:09;;;;;;;8.90;6.40;;;;;;;9.48;59.85;99453.46;25095;1316;3026415;-65
2022/04/23 04:39:39;;;;;;;11.70;5.60;;;;;;;9.56;59.73;99450.37;25126;1313;3052631;-62
2022/04/23 04:42:09;;;;;;;11.50;6.90;;;;;;;9.66;60.18;99450.69;25154;1316;3026271;-65
2022/04/23 04:44:39;;;;;;;10.90;6.50;;;;;;;9.68;59.53;99448.27;25098;1316;3027443;-63
2022/04/23 04:47:11;;;;;;;7.50;5.10;;;;;;;9.66;58.24;99450.36;25105;1313;3029064;-65
2022/04/23 04:49:42;;;;;;;7.90;5.00;;;;;;;9.72;57.67;99450.55;25079;1316;3026901;-63
2022/04/23 04:52:11;;;;;;;10.30;5.70;;;;;;;9.76;58.78;99447.13;25111;1315;3026289;-62
2022/04/23 04:54:44;;;;;;;6.60;5.30;;;;;;;9.78;59.43;99447.60;25089;1312;3027987;-65
2022/04/23 04:57:13;;;;;;;6.10;4.90;;;;;;;9.77;59.08;99449.52;25128;1316;3026082;-64
2022/04/23 04:59:43;;;;;;;8.80;5.50;;;;;;;9.78;59.47;99454.38;25074;1316;3026750;-61
2022/04/23 05:02:14;;;;;;;11.10;4.70;;;;;;;9.82;59.00;99444.16;25140;1313;3026672;-60
2022/04/23 05:04:45;;;;;;;12.20;5.00;;;;;;;9.86;58.01;99441.48;25142;1313;3027470;-64
2022/04/23 05:07:14;;;;;;;8.90;5.00;;;;;;;9.88;56.88;99442.81;25120;1313;3026314;-61
2022/04/23 05:09:45;;;;;;;9.80;4.40;;;;;;;9.87;56.78;99451.25;25123;1313;3052740;-62
2022/04/23 05:12:15;;;;;;;7.70;4.50;;;;;;;9.89;57.02;99445.88;25073;1316;3026859;-63
2022/04/23 05:14:48;;;;;;;6.90;4.20;;;;;;;9.89;57.23;99451.85;25075;1315;3053532;-66
2022/04/23 05:17:17;;;;;;;6.30;4.40;;;;;;;9.86;57.73;99460.38;25108;1313;3026796;-65
2022/04/23 05:19:46;;;;;;;9.10;4.40;;;;;;;9.76;58.29;99467.79;25060;1316;3054827;-60
2022/04/23 05:22:16;;;;;;;6.20;4.70;;;;;;;9.76;58.77;99474.80;25084;1315;3026479;-64
2022/04/23 05:24:45;;;;;;;7.10;5.10;;;;;;;9.81;59.13;99477.83;25117;1316;3026302;-63
2022/04/23 05:27:14;;;;;;;9.30;4.60;;;;;;;9.84;59.26;99476.59;25074;1315;3026446;-62
2022/04/23 05:29:43;;;;;;;10.20;5.20;;;;;;;9.86;59.74;99477.38;25116;1316;3051592;-62
2022/04/23 05:32:12;;;;;;;8.70;4.80;;;;;;;9.89;59.91;99478.76;25043;1315;3027291;-65
2022/04/23 05:34:43;;;;;;;10.90;5.10;;;;;;;9.91;60.34;99473.93;25149;1315;3058374;-62
2022/04/23 05:37:21;;;;;;;11.00;5.10;;;;;;;10.00;60.22;99466.03;25101;1316;3052832;-64
2022/04/23 05:39:52;;;;;;;7.40;5.00;;;;;;;9.97;60.22;99456.30;25086;1313;3028316;-64
2022/04/23 05:42:21;;;;;;;9.50;5.00;;;;;;;10.00;60.03;99458.55;25142;1312;3026670;-63
2022/04/23 05:44:50;;;;;;;11.00;4.60;;;;;;;9.94;59.97;99454.67;25066;1316;3049565;-64
2022/04/23 05:47:19;;;;;;;7.60;4.60;;;;;;;9.90;59.88;99447.05;25123;1315;3026526;-64
2022/04/23 05:49:51;;;;;;;7.20;4.80;;;;;;;9.99;59.88;99445.61;25105;1313;3058616;-64
2022/04/23 05:52:25;;;;;;;6.80;4.50;;;;;;;10.11;60.07;99441.77;25080;1313;3052016;-63
2022/04/23 05:54:54;;;;;;;6.10;4.50;;;;;;;10.19;59.89;99443.77;25105;1313;3026562;-64
2022/04/23 05:57:31;;;;;;;6.70;4.40;;;;;;;10.25;59.52;99446.75;25156;1313;3056945;-66
2022/04/23 06:00:00;;;;;;;7.00;4.40;;;;;;;10.31;58.30;99444.84;25069;1316;3026001;-66
2022/04/23 06:02:29;;;;;;;6.30;4.30;;;;;;;10.37;58.32;99440.31;25131;1311;3026654;-63
2022/04/23 06:05:03;;;;;;;4.70;4.20;;;;;;;10.35;58.67;99434.59;25152;1313;3026565;-68
2022/04/23 06:07:35;;;;;;;6.80;4.40;;;;;;;10.53;58.36;99444.95;25119;1312;3026381;-64
2022/04/23 06:10:06;;;;;;;6.80;4.60;;;;;;;10.51;58.69;99453.29;25102;1313;3026147;-66
2022/04/23 06:12:35;;;;;;;8.20;4.80;;;;;;;10.58;58.57;99446.52;25159;1312;3028187;-63
2022/04/23 06:15:05;;;;;;;8.20;4.90;;;;;;;10.58;58.51;99445.51;25171;1313;3030136;-63
2022/04/23 06:17:36;;;;;;;8.40;4.80;;;;;;;10.66;58.62;99453.46;25083;1315;3027356;-64
2022/04/23 06:20:06;;;;;;;6.70;4.50;;;;;;;10.69;58.62;99454.48;25132;1313;3026653;-66
2022/04/23 06:22:39;;;;;;;7.50;4.80;;;;;;;10.72;58.53;99454.27;25110;1316;3051761;-64
2022/04/23 06:25:08;;;;;;;8.60;5.80;;;;;;;10.78;58.42;99446.41;25058;1312;3026798;-64
2022/04/23 06:27:39;;;;;;;8.60;6.00;;;;;;;10.71;58.71;99447.35;25149;1313;3027359;-65
2022/04/23 06:30:11;;;;;;;11.10;6.00;;;;;;;10.71;58.80;99444.16;25089;1313;3026658;-65
2022/04/23 06:32:40;;;;;;;13.40;5.70;;;;;;;10.72;58.77;99441.31;25176;1313;3057164;-64
2022/04/23 06:35:09;;;;;;;12.30;5.40;;;;;;;10.66;58.95;99445.19;25087;1315;3026118;-63
2022/04/23 06:37:40;;;;;;;9.80;5.60;;;;;;;10.70;58.92;99444.58;25176;1316;3053592;-63
2022/04/23 06:40:13;;;;;;;12.10;6.10;;;;;;;10.63;59.15;99440.84;25113;1313;3028268;-64
2022/04/23 06:42:42;;;;;;;9.70;5.60;;;;;;;10.58;59.56;99442.89;25054;1316;3027158;-62
2022/04/23 06:45:13;;;;;;;9.50;5.10;;;;;;;10.65;59.90;99441.07;25145;1314;3027851;-66
2022/04/23 06:48:03;;;;;;;5.80;4.10;;;;;;;10.66;60.09;99439.27;25102;1315;3054251;-65
2022/04/23 06:50:34;;;;;;;8.50;4.90;;;;;;;10.59;60.27;99437.58;25072;1313;3070158;-64
2022/04/23 06:53:04;;;;;;;6.10;4.80;;;;;;;10.62;60.49;99433.02;25112;1313;3026971;-61
2022/04/23 06:55:39;;;;;;;6.80;5.00;;;;;;;10.63;61.05;99425.96;25134;1313;3052061;-65
2022/04/23 06:58:08;;;;;;;7.00;5.10;;;;;;;10.60;61.32;99422.96;25127;1316;3026575;-66
2022/04/23 07:00:41;;;;;;;7.70;4.10;;;;;;;10.62;61.30;99424.77;25132;1316;3049766;-65
2022/04/23 07:03:11;;;;;;;7.20;5.00;;;;;;;10.60;61.68;99425.77;25137;1316;3028196;-62
2022/04/23 07:05:41;;;;;;;9.00;5.30;;;;;;;10.64;61.83;99431.80;25107;1315;3028310;-62
2022/04/23 07:08:12;;;;;;;8.40;5.00;;;;;;;10.69;62.01;99436.45;25069;1315;3026617;-64
2022/04/23 07:10:44;;;;;;;7.40;5.70;;;;;;;10.71;62.02;99443.99;25138;1315;3026738;-63
2022/04/23 07:13:13;;;;;;;7.20;5.00;;;;;;;10.89;62.06;99446.27;25215;1315;3051793;-63
2022/04/23 07:15:44;;;;;;;9.40;5.40;;;;;;;10.98;61.63;99441.66;25343;1315;3028822;-62
2022/04/23 07:18:14;;;;;;;8.80;5.80;;;;;;;11.10;61.42;99439.17;25445;1315;3027391;-64
2022/04/23 07:20:46;;;;;;;6.80;5.40;;;;;;;11.21;61.36;99431.75;25441;1315;3027314;-64
2022/04/23 07:26:06;;;;;;;8.30;5.20;;;;;;;11.28;60.86;99420.84;25151;1316;3051338;-63
2022/04/23 07:28:37;;;;;;;6.70;5.00;;;;;;;11.45;60.27;99421.33;25135;1315;3026264;-64
2022/04/23 07:31:07;;;;;;;11.10;5.90;;;;;;;11.66;60.08;99422.95;25154;1315;3030007;-64
2022/04/23 07:39:30;;;;;;;7.50;4.80;;;;;;;11.83;59.22;99400.75;25084;1314;3054846;-65
2022/04/23 07:42:00;;;;;;;9.00;5.30;;;;;;;12.01;58.61;99393.63;25106;1313;3026865;-62
2022/04/23 07:44:29;;;;;;;6.30;4.80;;;;;;;12.10;58.09;99402.14;25076;1313;3026912;-62
2022/04/23 07:46:58;;;;;;;6.30;4.60;;;;;;;12.16;57.66;99412.59;25185;1313;3054378;-62
2022/04/23 07:49:29;;;;;;;8.10;5.50;;;;;;;12.21;57.64;99404.02;25118;1313;3026384;-67
2022/04/23 07:51:59;;;;;;;9.60;5.30;;;;;;;12.27;57.10;99402.91;25181;1313;3026656;-64
2022/04/23 07:54:28;;;;;;;6.50;4.80;;;;;;;12.26;56.80;99403.33;25060;1313;3026241;-64
2022/04/23 07:56:59;;;;;;;6.50;4.80;;;;;;;12.24;56.14;99406.42;25105;1312;3055564;-66
2022/04/23 07:59:29;;;;;;;6.10;4.70;;;;;;;12.18;56.10;99411.08;25060;1312;3026368;-65
2022/04/23 08:02:03;;;;;;;7.10;4.90;;;;;;;12.34;56.12;99410.15;25161;1313;3052308;-64
2022/04/23 08:04:33;;;;;;;6.80;5.20;;;;;;;12.47;56.42;99408.95;25056;1316;3026825;-64
2022/04/23 08:07:03;;;;;;;6.00;4.40;;;;;;;12.42;55.95;99409.39;25146;1315;3027567;-63
2022/04/23 08:09:40;;;;;;;5.10;4.10;;;;;;;12.58;56.13;99408.66;25123;1315;3071321;-64
2022/04/23 08:12:11;;;;;;;6.60;4.00;;;;;;;12.86;54.85;99399.48;25124;1316;3026410;-64
2022/04/23 08:14:45;;;;;;;4.50;3.30;;;;;;;13.02;53.65;99408.79;25111;1313;3054814;-63
2022/04/23 08:17:14;;;;;;;4.50;3.50;;;;;;;12.88;52.87;99399.92;25132;1312;3026847;-64
2022/04/23 08:19:43;;;;;;;5.10;3.40;;;;;;;12.80;51.63;99406.45;25122;1312;3046824;-63
2022/04/23 08:22:13;;;;;;;4.30;3.60;;;;;;;12.74;52.27;99397.40;25106;1313;3026638;-65
2022/04/23 08:24:45;;;;;;;4.70;3.80;;;;;;;13.01;52.13;99381.41;25147;1313;3026817;-62
2022/04/23 08:27:14;;;;;;;4.50;4.00;;;;;;;13.20;51.33;99369.27;25076;1313;3026143;-64
2022/04/23 08:32:37;;;;;;;5.10;3.10;;;;;;;13.40;50.48;99358.22;25134;1312;3053881;-64
2022/04/23 08:35:07;;;;;;;5.10;3.10;;;;;;;13.58;49.61;99354.40;25081;1316;3026471;-66
2022/04/23 08:37:37;;;;;;;7.80;3.40;;;;;;;13.72;49.21;99343.30;25159;1315;3052215;-64
2022/04/23 08:40:07;;;;;;;4.20;2.90;;;;;;;13.78;48.34;99344.11;25133;1316;3025953;-65
2022/04/23 08:42:39;;;;;;;5.30;3.10;;;;;;;13.72;46.84;99342.46;25169;1313;3049581;-65
2022/04/23 08:45:10;;;;;;;8.20;3.20;;;;;;;13.69;46.45;99334.95;25103;1313;3026514;-63
2022/04/23 08:47:46;;;;;;;4.70;3.30;;;;;;;13.75;46.75;99325.86;25163;1316;3026652;-65
2022/04/23 08:50:21;;;;;;;5.70;3.40;;;;;;;13.76;45.98;99328.42;25194;1316;3058569;-65
2022/04/23 08:52:56;;;;;;;6.70;3.30;;;;;;;13.65;46.22;99325.59;25192;1313;3049926;-65
2022/04/23 08:55:25;;;;;;;5.70;3.40;;;;;;;13.46;46.17;99329.43;25165;1313;3055360;-66
2022/04/23 08:57:55;;;;;;;4.40;2.90;;;;;;;13.30;46.23;99339.53;25184;1313;3026309;-64
2022/04/23 09:00:25;;;;;;;5.90;3.50;;;;;;;13.47;46.63;99341.52;25115;1313;3026180;-65
2022/04/23 09:02:56;;;;;;;8.90;3.30;;;;;;;13.51;45.51;99339.45;25164;1313;3026713;-65
2022/04/23 09:05:28;;;;;;;5.80;2.90;;;;;;;13.54;45.10;99340.92;25171;1313;3026558;-65
2022/04/23 09:08:05;;;;;;;5.10;3.20;;;;;;;13.47;44.94;99332.38;25139;1313;3055203;-67
2022/04/23 09:10:45;;;;;;;5.50;3.00;;;;;;;13.44;44.75;99336.62;25143;1313;3026625;-63
2022/04/23 09:13:25;;;;;;;7.00;3.30;;;;;;;13.58;44.74;99334.91;25132;1316;3052728;-64
2022/04/23 09:25:00;;;;;;;4.90;3.10;;;;;;;14.23;44.80;99327.98;25013;1322;3054042;-64
2022/04/23 09:27:32;;;;;;;4.50;3.00;;;;;;;14.10;44.48;99320.52;25150;1313;3026570;-60
2022/04/23 09:30:06;;;;;;;4.90;2.60;;;;;;;13.98;44.13;99318.16;25154;1313;3026582;-66
2022/04/23 09:33:00;;;;;;;4.50;2.80;;;;;;;14.00;44.69;99310.05;25109;1313;3059032;-70
2022/04/23 09:35:33;;;;;;;4.90;2.80;;;;;;;14.13;44.40;99312.77;25151;1316;3052009;-67
2022/04/23 09:38:16;;;;;;;3.40;2.70;;;;;;;14.22;44.49;99309.27;25144;1313;3026341;-68
2022/04/23 09:40:56;;;;;;;5.10;3.10;;;;;;;14.08;43.51;99311.23;25159;1312;3060237;-64
2022/04/23 09:43:29;;;;;;;4.50;3.40;;;;;;;13.96;44.39;99301.52;25119;1313;3054285;-64
2022/04/23 09:46:07;;;;;;;5.70;3.00;;;;;;;13.96;44.41;99301.88;25083;1313;3026847;-64
2022/04/23 09:48:43;;;;;;;3.80;3.20;;;;;;;14.01;44.39;99299.96;25173;1312;3054569;-64
2022/04/23 09:51:25;;;;;;;4.90;3.20;;;;;;;13.95;45.09;99291.20;25136;1313;3026629;-64
2022/04/23 09:53:56;;;;;;;5.60;2.90;;;;;;;13.85;45.58;99288.62;25128;1313;3052170;-66
2022/04/23 09:56:27;;;;;;;4.70;3.00;;;;;;;13.90;46.22;99288.27;25128;1313;3026517;-67
2022/04/23 09:58:56;;;;;;;6.40;3.10;;;;;;;13.94;46.24;99287.60;25158;1313;3026414;-64
2022/04/23 10:01:27;;;;;;;4.30;2.50;;;;;;;13.79;46.41;99284.55;25072;1316;3050912;-65
2022/04/23 10:03:57;;;;;;;3.90;2.80;;;;;;;13.52;46.50;99272.48;25124;1315;3026320;-63
2022/04/23 10:06:27;;;;;;;3.50;2.40;;;;;;;13.53;46.57;99267.16;25072;1316;3026767;-64
2022/04/23 10:08:57;;;;;;;4.10;2.70;;;;;;;13.43;47.50;99263.33;25144;1313;3026621;-65
2022/04/23 10:11:27;;;;;;;4.30;2.90;;;;;;;13.36;48.39;99271.57;25121;1315;3026750;-64
2022/04/23 10:14:02;;;;;;;5.30;3.00;;;;;;;13.31;48.71;99272.32;25176;1313;3026603;-66
2022/04/23 10:16:32;;;;;;;4.80;2.80;;;;;;;13.42;48.72;99276.20;25203;1313;3028363;-69
2022/04/23 10:19:01;;;;;;;9.20;3.20;;;;;;;13.38;50.23;99279.02;25149;1312;3026968;-70
2022/04/23 10:21:42;;;;;;;5.90;3.40;;;;;;;13.41;50.47;99278.44;25147;1313;3026466;-65
2022/04/23 10:24:26;;;;;;;5.50;3.30;;;;;;;13.45;50.71;99281.48;25180;1313;3055014;-66
2022/04/23 10:27:07;;;;;;;4.80;3.20;;;;;;;13.54;49.38;99281.51;25192;1313;3054617;-67
2022/04/23 10:29:36;;;;;;;4.70;3.00;;;;;;;13.69;49.06;99285.96;25137;1313;3055992;-67
2022/04/23 10:32:15;;;;;;;6.50;3.10;;;;;;;13.75;48.61;99282.37;25154;1313;3026158;-63
2022/04/23 10:34:45;;;;;;;4.30;2.90;;;;;;;13.64;48.07;99279.03;25155;1312;3053399;-68
2022/04/23 10:37:30;;;;;;;4.70;3.10;;;;;;;13.56;48.15;99274.81;25108;1312;3026268;-65
2022/04/23 10:39:59;;;;;;;4.80;3.00;;;;;;;13.50;46.84;99274.98;25132;1312;3052165;-67
2022/04/23 10:42:32;;;;;;;5.70;3.60;;;;;;;13.58;46.87;99276.77;25112;1315;3028346;-68
2022/04/23 10:45:06;;;;;;;4.80;2.80;;;;;;;13.68;46.36;99275.50;25138;1315;3026272;-68
2022/04/23 10:47:36;;;;;;;5.10;3.00;;;;;;;13.60;44.65;99269.77;25130;1316;3026307;-66
2022/04/23 10:52:50;;;;;;;4.60;2.90;;;;;;;13.65;43.96;99271.02;25181;1316;3052207;-64
2022/04/23 10:55:19;;;;;;;7.20;2.60;;;;;;;13.71;44.22;99267.73;25189;1315;3026663;-68
2022/04/23 10:57:52;;;;;;;4.20;2.30;;;;;;;13.67;44.07;99265.21;25196;1315;3029876;-65
2022/04/23 11:00:22;;;;;;;3.10;2.30;;;;;;;13.66;43.94;99261.63;25130;1312;3027121;-64
2022/04/23 11:02:56;;;;;;;5.20;2.60;;;;;;;13.69;44.64;99261.73;25131;1313;3028672;-66
2022/04/23 11:14:39;;;;;;;5.30;2.90;;;;;;;13.74;45.53;99252.32;25129;1313;3055254;-66
2022/04/23 11:17:14;;;;;;;5.90;3.40;;;;;;;13.78;45.61;99248.86;25147;1315;3052689;-69
2022/04/23 11:19:45;;;;;;;6.20;3.70;;;;;;;13.72;45.34;99250.05;25129;1316;3027675;-64
2022/04/23 11:22:14;;;;;;;5.50;3.50;;;;;;;13.68;44.40;99252.61;25018;1315;3026571;-66
2022/04/23 11:24:45;;;;;;;5.20;3.40;;;;;;;13.55;44.86;99262.95;25162;1313;3026888;-67
2022/04/23 11:27:25;;;;;;;4.00;3.10;;;;;;;13.49;44.89;99259.04;25315;1316;3056717;-64
2022/04/23 11:29:55;;;;;;;5.70;3.10;;;;;;;13.57;44.23;99267.36;25351;1315;3054456;-64
2022/04/23 11:32:28;;;;;;;6.00;3.60;;;;;;;13.66;44.05;99267.59;25139;1316;3026318;-69
2022/04/23 11:35:04;;;;;;;8.20;3.30;;;;;;;13.75;43.88;99265.64;25063;1313;3026487;-65
2022/04/23 11:37:35;;;;;;;6.70;3.50;;;;;;;13.82;43.20;99259.89;25115;1313;3069283;-66
2022/04/23 11:40:13;;;;;;;5.90;3.10;;;;;;;13.91;43.39;99263.89;25155;1313;3049394;-67
2022/04/23 11:42:43;;;;;;;5.30;2.70;;;;;;;13.92;43.45;99260.15;25106;1313;3025994;-66
2022/04/23 11:45:14;;;;;;;4.20;3.00;;;;;;;13.70;43.24;99258.12;25186;1313;3029901;-66
2022/04/23 11:47:43;;;;;;;6.10;3.30;;;;;;;13.58;43.60;99252.70;25120;1315;3028605;-68
2022/04/23 11:50:17;;;;;;;4.20;3.10;;;;;;;13.63;43.84;99250.92;25114;1316;3026593;-66
2022/04/23 11:52:59;;;;;;;6.90;2.60;;;;;;;13.62;43.48;99245.67;25119;1316;3055723;-65
2022/04/23 11:55:30;;;;;;;5.50;2.60;;;;;;;13.69;43.92;99244.45;25190;1313;3054656;-66
2022/04/23 11:58:06;;;;;;;4.10;2.30;;;;;;;13.59;43.88;99236.95;25088;1313;3026337;-63
2022/04/23 12:00:46;;;;;;;4.40;1.90;;;;;;;13.54;44.43;99235.75;25152;1313;3051919;-65
2022/04/23 12:03:15;;;;;;;3.60;2.30;;;;;;;13.52;44.31;99239.44;25141;1313;3026276;-65
2022/04/23 12:05:45;;;;;;;2.30;1.90;;;;;;;13.57;44.68;99240.64;25133;1313;3026220;-68
2022/04/23 12:08:21;;;;;;;2.40;2.10;;;;;;;13.52;44.95;99238.73;25118;1312;3026349;-65
2022/04/23 12:10:50;;;;;;;3.50;2.20;;;;;;;13.46;45.27;99229.70;25173;1312;3051673;-65